createdAt,value
2022-11-02T00:02:30.296Z,7.88
2022-11-02T00:05:00.468Z,8.30
2022-11-02T00:07:33.190Z,8.68
2022-11-02T00:10:03.340Z,7.72
2022-11-02T00:12:33.545Z,7.60
2022-11-02T00:15:03.800Z,8.38
2022-11-02T00:17:34.118Z,7.90
2022-11-02T00:20:04.518Z,8.60
2022-11-02T00:22:37.695Z,7.88
2022-11-02T00:25:12.480Z,9.15
2022-11-02T00:27:43.903Z,9.05
2022-11-02T00:30:14.843Z,8.13
2022-11-02T00:32:45.072Z,8.10
2022-11-02T00:35:16.370Z,7.72
2022-11-02T00:37:49.094Z,7.70
2022-11-02T00:40:20.005Z,6.80
2022-11-02T00:42:50.214Z,7.30
2022-11-02T00:45:20.553Z,7.43
2022-11-02T00:47:50.765Z,7.10
2022-11-02T00:50:21.327Z,7.68
2022-11-02T00:52:54.024Z,7.15
2022-11-02T00:55:24.091Z,6.72
2022-11-02T00:57:54.253Z,6.75
2022-11-02T01:00:24.739Z,6.93
2022-11-02T01:02:54.946Z,6.10
2022-11-02T01:05:25.171Z,5.68
2022-11-02T01:07:58.459Z,6.53
2022-11-02T01:10:28.850Z,6.13
2022-11-02T01:12:59.027Z,6.45
2022-11-02T01:15:29.312Z,6.18
2022-11-02T01:17:59.561Z,6.88
2022-11-02T01:20:29.702Z,5.20
2022-11-02T01:23:03.552Z,5.63
2022-11-02T01:25:33.762Z,5.83
2022-11-02T01:28:04.130Z,5.80
2022-11-02T01:30:34.502Z,5.70
2022-11-02T01:33:04.702Z,6.22
2022-11-02T01:35:34.924Z,5.95
2022-11-02T01:38:07.815Z,5.43
2022-11-02T01:40:39.250Z,5.35
2022-11-02T01:43:27.070Z,5.40
2022-11-02T01:46:01.812Z,5.75
2022-11-02T01:51:16.657Z,5.70
2022-11-02T01:53:52.577Z,4.95
2022-11-02T01:56:26.821Z,5.25
2022-11-02T01:59:02.198Z,5.38
2022-11-02T02:01:33.088Z,5.65
2022-11-02T02:04:04.444Z,5.35
2022-11-02T02:06:34.930Z,5.43
2022-11-02T02:09:10.268Z,5.13
2022-11-02T02:11:43.023Z,4.55
2022-11-02T02:14:16.789Z,5.45
2022-11-02T02:17:09.361Z,4.90
2022-11-02T02:19:49.270Z,5.00
2022-11-02T02:22:55.270Z,4.65
2022-11-02T02:25:58.095Z,5.13
2022-11-02T02:28:40.688Z,4.25
2022-11-02T02:31:18.877Z,4.55
2022-11-02T02:33:57.210Z,4.85
2022-11-02T02:36:34.153Z,4.90
2022-11-02T02:39:09.058Z,5.88
2022-11-02T02:41:43.167Z,4.75
2022-11-02T02:44:22.577Z,4.25
2022-11-02T02:46:58.249Z,4.50
2022-11-02T02:49:35.497Z,4.10
2022-11-02T02:52:06.792Z,4.30
2022-11-02T02:54:43.672Z,4.95
2022-11-02T02:57:19.675Z,4.50
2022-11-02T02:59:52.799Z,4.32
2022-11-02T03:02:27.504Z,4.50
2022-11-02T03:04:57.817Z,4.25
2022-11-02T03:07:32.959Z,4.85
2022-11-02T03:10:14.760Z,4.80
2022-11-02T03:12:53.250Z,4.47
2022-11-02T03:15:33.162Z,4.32
2022-11-02T03:18:11.915Z,4.63
2022-11-02T03:20:54.414Z,4.07
2022-11-02T03:23:32.561Z,4.43
2022-11-02T03:26:09.880Z,4.63
2022-11-02T03:29:02.901Z,4.93
2022-11-02T03:31:42.997Z,3.88
2022-11-02T03:34:22.980Z,4.43
2022-11-02T03:37:00.373Z,3.60
2022-11-02T03:39:37.587Z,4.00
2022-11-02T03:42:08.689Z,3.83
2022-11-02T03:44:42.261Z,5.50
2022-11-02T03:47:19.448Z,3.55
2022-11-02T03:49:52.341Z,3.50
2022-11-02T03:52:27.428Z,3.90
2022-11-02T03:55:06.746Z,4.38
2022-11-02T03:57:48.961Z,3.63
2022-11-02T04:00:22.392Z,3.63
2022-11-02T04:02:58.088Z,3.40
2022-11-02T04:05:32.805Z,3.90
2022-11-02T04:10:58.097Z,3.30
2022-11-02T04:13:40.693Z,3.47
2022-11-02T04:16:11.029Z,3.17
2022-11-02T04:18:57.216Z,3.30
2022-11-02T04:21:27.379Z,3.40
2022-11-02T04:24:10.177Z,3.63
2022-11-02T04:26:40.900Z,2.85
2022-11-02T04:29:11.210Z,2.55
2022-11-02T04:31:41.517Z,3.63
2022-11-02T04:34:11.582Z,2.90
2022-11-02T04:36:41.742Z,3.08
2022-11-02T04:39:09.275Z,2.70
2022-11-02T04:41:45.067Z,2.90
2022-11-02T04:44:17.228Z,3.15
2022-11-02T04:46:47.962Z,3.05
2022-11-02T04:49:22.670Z,2.75
2022-11-02T04:54:22.786Z,2.65
2022-11-02T04:56:53.166Z,2.75
2022-11-02T04:59:23.289Z,2.97
2022-11-02T05:01:53.604Z,2.95
2022-11-02T05:04:26.786Z,2.67
2022-11-02T05:07:01.269Z,2.50
2022-11-02T05:09:31.864Z,2.80
2022-11-02T05:12:05.275Z,2.50
2022-11-02T05:14:35.568Z,2.65
2022-11-02T05:17:06.209Z,2.75
2022-11-02T05:19:39.081Z,2.67
2022-11-02T05:22:09.262Z,2.38
2022-11-02T05:24:39.464Z,2.95
2022-11-02T05:27:09.626Z,2.53
2022-11-02T05:29:39.796Z,2.30
2022-11-02T05:32:09.892Z,2.75
2022-11-02T05:34:42.786Z,2.95
2022-11-02T05:37:12.855Z,2.80
2022-11-02T05:39:45.125Z,2.72
2022-11-02T05:42:18.009Z,2.80
2022-11-02T05:44:48.212Z,2.70
2022-11-02T05:47:18.375Z,4.03
2022-11-02T05:49:51.166Z,2.40
2022-11-02T05:52:21.258Z,2.47
2022-11-02T05:54:51.405Z,2.42
2022-11-02T05:57:21.477Z,2.70
2022-11-02T05:59:51.706Z,2.30
2022-11-02T06:02:23.419Z,2.95
2022-11-02T06:04:58.431Z,3.10
2022-11-02T06:07:28.742Z,2.40
2022-11-02T06:09:58.866Z,2.65
2022-11-02T06:12:29.075Z,2.30
2022-11-02T06:14:59.359Z,2.35
2022-11-02T06:17:30.694Z,2.55
2022-11-02T06:20:03.740Z,2.20
2022-11-02T06:22:33.954Z,2.20
2022-11-02T06:25:04.122Z,1.95
2022-11-02T06:27:34.240Z,2.40
2022-11-02T06:30:04.908Z,2.67
2022-11-02T06:32:35.212Z,2.75
2022-11-02T06:35:09.404Z,2.28
2022-11-02T06:37:39.559Z,2.17
2022-11-02T06:40:11.464Z,3.35
2022-11-02T06:42:45.090Z,2.47
2022-11-02T06:45:20.827Z,2.95
2022-11-02T06:47:52.092Z,2.42
2022-11-02T06:50:25.440Z,2.88
2022-11-02T06:52:56.030Z,2.05
2022-11-02T06:55:26.274Z,2.70
2022-11-02T06:57:56.397Z,2.40
2022-11-02T07:00:26.515Z,2.58
2022-11-02T07:03:03.900Z,2.60
2022-11-02T07:05:39.748Z,2.05
2022-11-02T07:08:10.009Z,2.90
2022-11-02T07:10:40.363Z,3.00
2022-11-02T07:13:10.581Z,2.20
2022-11-02T07:15:41.020Z,2.53
2022-11-02T07:18:11.526Z,2.20
2022-11-02T07:20:44.362Z,2.17
2022-11-02T07:23:14.537Z,2.30
2022-11-02T07:25:44.785Z,2.30
2022-11-02T07:28:17.511Z,2.20
2022-11-02T07:30:47.750Z,2.47
2022-11-02T07:33:17.943Z,2.35
2022-11-02T07:35:50.866Z,2.50
2022-11-02T07:38:21.046Z,2.53
2022-11-02T07:40:53.459Z,2.20
2022-11-02T07:43:23.624Z,2.00
2022-11-02T07:45:53.882Z,2.25
2022-11-02T07:48:23.973Z,2.22
2022-11-02T07:50:56.766Z,2.20
2022-11-02T07:53:26.822Z,2.13
2022-11-02T07:55:57.069Z,1.83
2022-11-02T07:58:27.305Z,2.03
2022-11-02T08:01:01.082Z,2.15
2022-11-02T08:03:32.112Z,2.23
2022-11-02T08:06:07.378Z,2.28
2022-11-02T08:08:37.610Z,2.17
2022-11-02T08:11:11.096Z,2.20
2022-11-02T08:13:41.864Z,2.20
2022-11-02T08:16:11.967Z,2.60
2022-11-02T08:18:42.454Z,2.20
2022-11-02T08:21:15.270Z,2.63
2022-11-02T08:23:45.458Z,1.50
2022-11-02T08:26:15.600Z,1.95
2022-11-02T08:28:45.889Z,1.75
2022-11-02T08:31:18.949Z,1.67
2022-11-02T08:33:49.515Z,2.10
2022-11-02T08:36:22.310Z,1.88
2022-11-02T08:38:52.595Z,1.95
2022-11-02T08:41:22.833Z,4.10
2022-11-02T08:43:53.081Z,1.85
2022-11-02T08:46:23.404Z,2.97
2022-11-02T08:48:53.677Z,1.20
2022-11-02T08:51:26.455Z,1.02
2022-11-02T08:53:57.200Z,1.88
2022-11-02T08:56:27.375Z,1.50
2022-11-02T08:58:57.669Z,1.50
2022-11-02T09:01:27.897Z,2.10
2022-11-02T09:03:58.057Z,1.60
2022-11-02T09:06:30.736Z,2.08
2022-11-02T09:09:00.917Z,2.40
2022-11-02T09:11:31.026Z,1.60
2022-11-02T09:14:01.311Z,1.88
2022-11-02T09:16:31.437Z,1.40
2022-11-02T09:19:01.714Z,1.83
2022-11-02T09:21:34.554Z,1.80
2022-11-02T09:24:04.813Z,1.65
2022-11-02T09:26:35.002Z,1.70
2022-11-02T09:29:05.370Z,1.88
2022-11-02T09:31:35.538Z,1.92
2022-11-02T09:34:05.785Z,2.15
2022-11-02T09:36:38.558Z,1.85
2022-11-02T09:39:08.817Z,1.10
2022-11-02T09:41:45.302Z,1.67
2022-11-02T09:44:23.174Z,1.92
2022-11-02T09:47:27.827Z,1.48
2022-11-02T09:49:44.854Z,1.45
2022-11-02T09:52:28.336Z,2.20
2022-11-02T09:55:00.130Z,1.95
2022-11-02T09:57:33.286Z,1.67
2022-11-02T10:00:03.605Z,1.83
2022-11-02T10:02:48.970Z,2.38
2022-11-02T10:05:40.836Z,1.60
2022-11-02T10:08:30.447Z,1.90
2022-11-02T10:11:15.537Z,2.03
2022-11-02T10:16:29.453Z,1.05
2022-11-02T10:18:59.790Z,1.80
2022-11-02T10:21:35.797Z,1.85
2022-11-02T10:24:22.399Z,1.00
2022-11-02T10:26:52.946Z,1.10
2022-11-02T10:29:36.640Z,2.20
2022-11-02T10:32:07.482Z,1.40
2022-11-02T10:34:37.956Z,2.05
2022-11-02T10:37:25.449Z,1.58
2022-11-02T10:40:08.731Z,1.52
2022-11-02T10:42:59.491Z,1.27
2022-11-02T10:46:09.968Z,1.00
2022-11-02T10:48:49.798Z,1.30
2022-11-02T10:51:22.085Z,1.40
2022-11-02T10:53:55.153Z,1.42
2022-11-02T10:56:34.309Z,1.35
2022-11-02T10:59:13.735Z,1.40
2022-11-02T11:01:50.126Z,1.35
2022-11-02T11:04:25.760Z,2.60
2022-11-02T11:06:58.191Z,1.10
2022-11-02T11:09:32.230Z,1.65
2022-11-02T11:12:07.784Z,1.52
2022-11-02T11:20:38.733Z,1.23
2022-11-02T11:23:22.509Z,1.30
2022-11-02T11:26:04.515Z,1.88
2022-11-02T11:28:43.096Z,1.33
2022-11-02T11:31:16.973Z,1.40
2022-11-02T11:33:50.837Z,1.33
2022-11-02T11:36:28.642Z,1.47
2022-11-02T11:39:02.060Z,1.77
2022-11-02T11:41:34.507Z,1.08
2022-11-02T11:44:07.624Z,1.63
2022-11-02T11:46:47.420Z,1.58
2022-11-02T11:49:41.715Z,1.33
2022-11-02T11:52:29.968Z,1.67
2022-11-02T11:55:02.881Z,1.40
2022-11-02T11:57:35.502Z,1.30
2022-11-02T12:00:30.510Z,1.92
2022-11-02T12:03:08.557Z,1.45
2022-11-02T12:05:52.279Z,1.40
2022-11-02T12:08:44.470Z,1.27
2022-11-02T12:11:33.921Z,1.23
2022-11-02T12:14:19.700Z,1.27
2022-11-02T12:17:34.242Z,1.35
2022-11-02T12:20:25.662Z,1.20
2022-11-02T12:23:07.881Z,1.55
2022-11-02T12:25:51.771Z,1.25
2022-11-02T12:28:34.993Z,1.13
2022-11-02T12:31:18.339Z,1.55
2022-11-02T12:34:08.367Z,2.00
2022-11-02T12:40:11.330Z,1.20
2022-11-02T12:42:53.069Z,1.17
2022-11-02T12:45:42.674Z,1.30
2022-11-02T12:48:19.891Z,1.20
2022-11-02T12:51:05.891Z,1.13
2022-11-02T12:53:48.046Z,1.38
2022-11-02T12:56:24.143Z,1.15
2022-11-02T12:58:55.667Z,2.88
2022-11-02T13:01:31.355Z,1.65
2022-11-02T13:04:12.436Z,2.00
2022-11-02T13:06:50.710Z,1.70
2022-11-02T13:09:28.660Z,1.40
2022-11-02T13:12:07.109Z,1.73
2022-11-02T13:14:43.395Z,1.60
2022-11-02T13:17:18.783Z,1.10
2022-11-02T13:19:54.073Z,1.40
2022-11-02T13:22:33.185Z,1.35
2022-11-02T13:25:15.767Z,1.23
2022-11-02T13:27:53.697Z,1.27
2022-11-02T13:30:24.177Z,1.42
2022-11-02T13:33:02.919Z,1.63
2022-11-02T13:35:37.397Z,1.05
2022-11-02T13:38:29.060Z,1.15
2022-11-02T13:41:27.415Z,1.15
2022-11-02T13:44:53.988Z,0.88
2022-11-02T13:47:56.336Z,1.17
2022-11-02T13:50:28.648Z,1.50
2022-11-02T13:53:03.156Z,1.40
2022-11-02T13:55:45.840Z,1.30
2022-11-02T13:58:27.626Z,1.20
2022-11-02T14:01:03.898Z,1.05
2022-11-02T14:03:48.586Z,1.15
2022-11-02T14:06:21.381Z,1.15
2022-11-02T14:08:55.531Z,1.90
2022-11-02T14:11:39.707Z,1.25
2022-11-02T14:14:27.717Z,1.27
2022-11-02T14:17:16.026Z,1.25
2022-11-02T14:20:04.922Z,1.58
2022-11-02T14:22:35.130Z,1.70
2022-11-02T14:25:21.247Z,1.20
2022-11-02T14:27:59.839Z,1.35
2022-11-02T14:30:49.098Z,1.30
2022-11-02T14:33:42.785Z,1.00
2022-11-02T14:36:29.694Z,1.30
2022-11-02T14:39:13.204Z,1.40
2022-11-02T14:42:12.917Z,1.55
2022-11-02T14:45:15.714Z,1.50
2022-11-02T14:47:46.240Z,1.38
2022-11-02T14:50:21.439Z,1.80
2022-11-02T14:53:03.730Z,1.40
2022-11-02T14:55:37.056Z,1.30
2022-11-02T14:58:11.416Z,1.75
2022-11-02T15:01:00.631Z,1.30
2022-11-02T15:03:38.347Z,1.65
2022-11-02T15:06:18.033Z,1.40
2022-11-02T15:08:58.486Z,1.27
2022-11-02T15:11:49.305Z,1.85
2022-11-02T15:14:42.754Z,1.00
2022-11-02T15:18:01.389Z,1.35
2022-11-02T15:20:36.475Z,1.65
2022-11-02T15:23:30.593Z,1.17
2022-11-02T15:26:02.961Z,1.63
2022-11-02T15:28:37.192Z,1.90
2022-11-02T15:31:15.969Z,1.88
2022-11-02T15:33:51.677Z,1.83
2022-11-02T15:36:29.490Z,1.77
2022-11-02T15:39:00.330Z,1.70
2022-11-02T15:41:40.568Z,1.50
2022-11-02T15:44:40.197Z,1.50
2022-11-02T15:47:19.655Z,2.50
2022-11-02T15:50:15.845Z,1.35
2022-11-02T15:53:22.791Z,1.77
2022-11-02T15:56:05.580Z,1.63
2022-11-02T15:58:51.787Z,2.05
2022-11-02T16:01:24.781Z,1.75
2022-11-02T16:03:59.204Z,1.70
2022-11-02T16:06:35.454Z,1.77
2022-11-02T16:09:27.045Z,23.13
2022-11-02T16:12:06.042Z,4.30
2022-11-02T16:14:36.135Z,2.13
2022-11-02T16:17:06.464Z,1.80
2022-11-02T16:19:36.589Z,1.50
2022-11-02T16:22:12.708Z,1.98
2022-11-02T16:24:45.784Z,2.67
2022-11-02T16:27:16.988Z,2.08
2022-11-02T16:29:47.202Z,2.05
2022-11-02T16:32:18.177Z,2.22
2022-11-02T16:34:48.844Z,2.50
2022-11-02T16:37:23.783Z,2.08
2022-11-02T16:39:54.539Z,2.85
2022-11-02T16:42:27.026Z,2.05
2022-11-02T16:45:00.981Z,2.05
2022-11-02T16:47:41.119Z,2.63
2022-11-02T16:50:25.962Z,2.20
2022-11-02T20:42:06.626Z,6.90
